Asher, Kentucky
Current Conditions -  °F | °C
As of 5:15 AM on Sunday 23 Nov 2014 (Local Time) from KI35 Reporting Station
Clear Clear  
Wind Chill: 45°   Ceiling: Unl
Heat Index: 48°   Visibility: 10mi
Dew Point: 32°   Wind: 7mph
Humidity: 54%   Direction: 100°E
Pressure: 30.09"   Gusts: NA
Location:  37.04°N, 83.4°W
Report Text: KI35 231015Z AUTO 10006KT 10SM CLR 09/00 A3009 RMK AO1
Loading
Personal Weather Stations






























Interactive Weather Map New forecast layout! Learn more

10-Day Weather Forecast

Advertisements
Track Severe Weather on mobile